x

Buoy E01 - Central Maine Shelf (44032) Wave Buoy

11:04pm - Sat 19th Apr 2014 All times are EDT. -4 hours from GMT.

  • Sig Wave height 3.6ft
  • Peak Period 11s
  • Wind
    7mph, 9mph gusts
  • Sea Temp 40°f
  • 空気 Temp 41°f
  • Sea Pressure 1028.3mb
  • Buoy E01 - Central Maine Shelf
  • Buoy E01 - Central Maine Shelf

More Historic Weather Station data

Upgrade to MSW Pro to gain access to the past 30 days of data for over 8000 Wavebouys and Weather Stations around the globe.

Join Pro

Comparision Forecast

View Surf forecast
   
Sat 04/19 11:04pm 3.5ft 11s 7 9 mph 1028.3mb 40f 41f
10:04pm  -   -  7
mph
1028mb 40f 42f
9:04pm 4.5ft 8s 16 18 mph 1026.9mb 40f 44f
8:04pm 4ft 8s 11 16 mph 1025.3mb 40f 44f
7:04pm 4.5ft 8s 18 20 mph 1024.1mb 40f 45f
6:04pm 4.5ft 11s 20 25 mph 1023.2mb 40f 46f
5:04pm  -   -  18 22 mph 1022.3mb 41f 47f
4:04pm  -   -  20 25 mph 1021.3mb 40f 46f
3:04pm 5ft 11s 20 25 mph 1020.6mb 40f 47f
2:04pm  -   -  18 20 mph 1020.3mb 40f 47f
1:04pm 4ft 11s 11 13 mph 1020.2mb 40f 43f
12:04pm 4.5ft 11s 9 11 mph 1020.3mb 40f 40f
11:04am 4.5ft 11s 9 11 mph 1020.1mb 39f 39f
10:04am 5.5ft 11s 11 13 mph 1020.2mb 39f 39f
9:04am 5ft 11s 13 16 mph 1020.6mb 39f 39f
8:04am 6ft 11s 11 16 mph 1020.3mb 39f 39f
7:04am 5ft 11s 13 16 mph 1020.8mb 39f 39f
6:04am 6ft 11s 11 13 mph 1020.3mb 39f 39f
5:04am 5ft 11s 13 16 mph 1020.2mb 39f 38f
4:04am 5.5ft 11s 13 18 mph 1020.6mb 40f 38f
3:04am 4.5ft 8s 11 13 mph 1020.6mb 40f 38f
2:04am  -   -  11 13 mph 1021.6mb 40f 39f
1:04am 5ft 8s 11 13 mph 1023.1mb 40f 39f
12:04am  -   -  11 16 mph 1023.6mb 40f 39f
Fri 04/18 11:04pm 5ft 8s 11 16 mph 1024.3mb 40f 38f
10:04pm 6ft 11s 7 9 mph 1025mb 40f 37f
9:04pm 5.5ft 11s 9 11 mph 1025.7mb 40f 37f
8:04pm 6.5ft 11s 7 11 mph 1025.6mb 40f 37f
7:04pm 7ft 8s 4 7 mph 1027.4mb 40f 37f
6:04pm 6ft 11s 4 7 mph 1027.6mb 40f 37f
5:04pm 7ft 8s 4 9 mph 1029mb 40f 37f
4:04pm 5.5ft 8s 7 9 mph 1029.9mb 40f 36f
3:04pm 4.5ft 8s 9 11 mph 1030.4mb 40f 37f
2:04pm 5ft 11s 7 9 mph 1031.6mb 40f 37f
1:04pm 4.5ft 11s 9 11 mph 1031.9mb 40f 37f
12:04pm 4.5ft 8s 9 11 mph 1034.3mb 40f 37f
11:04am 5ft 11s 11 13 mph 1035.1mb 40f 37f
10:04am 4.5ft 8s 13 16 mph 1034.8mb 39f 37f
9:04am 4.5ft 8s 16 18 mph 1034.6mb 39f 37f
8:04am 4ft 8s 16 18 mph 1034.7mb 39f 37f
7:04am 4ft 8s 16 18 mph 1035.9mb 39f 36f
6:04am 4ft 8s 11 13 mph 1036.9mb 39f 35f
5:04am 2.5ft 8s 11 16 mph 1036.8mb 39f 35f
4:04am 3ft 8s 11 16 mph 1037mb 39f 35f
3:04am 3ft 6s 11 13 mph 1036.9mb 39f 37f
2:04am 3ft 8s 4
mph
1037.1mb 39f 37f
1:04am 3ft 6s 9
mph
1038mb 40f 37f
12:04am 3.5ft 6s 9 11 mph 1038.7mb 40f 38f
Thu 04/17 11:04pm 3.5ft 8s 11 13 mph 1039.7mb 39f 37f
10:04pm 3.5ft 11s 7 9 mph 1040.4mb 39f 37f
9:04pm 3.5ft 8s 7 9 mph 1040.9mb 39f 37f
8:04pm 4ft 11s 7 9 mph 1041mb 39f 36f
7:04pm 4.5ft 11s 11 13 mph 1041.2mb 39f 36f
6:04pm 3.5ft 6s 13 16 mph 1041.4mb 39f 36f
5:04pm 3ft 6s 11 13 mph 1041.6mb 40f 36f
4:04pm 2.5ft 6s 13 16 mph 1041.7mb 40f 35f
3:04pm 4ft 11s 13 16 mph 1041.8mb 40f 34f
2:04pm 3ft 6s 13 18 mph 1042.7mb 39f 34f
1:04pm 4ft 5s 16 18 mph 1043.1mb 39f 34f
12:04pm 4ft 5s 20 22 mph 1043.4mb 39f 33f
11:04am 5ft 5s 16 20 mph 1043.9mb 39f 33f
10:04am 3.5ft 5s 18 25 mph 1043.9mb 39f 32f
9:04am 5.5ft 11s 20 22 mph 1043.6mb 39f 32f
8:04am 5ft 11s 20 25 mph 1042.9mb 39f 31f
7:04am 5ft 11s 18 25 mph 1042.3mb 39f 31f
6:04am 5.5ft 11s 16 20 mph 1041.5mb 39f 30f
5:04am 4.5ft 11s 16 20 mph 1040.8mb 39f 29f
4:04am 5ft 11s 18 22 mph 1039.9mb 39f 30f
3:04am 2.5ft 3s 20 25 mph 1038.7mb 39f 30f
2:04am 2.5ft 4s 22 27 mph 1038mb 39f 30f
1:04am 4ft 11s 18 22 mph 1037.5mb 39f 31f
12:04am 4.5ft 11s 20 25 mph 1036.9mb 39f 31f
Wed 04/16 11:04pm  -   -  18 25 mph 1036mb 39f 33f
10:04pm 5.5ft 11s 20 25 mph 1034.9mb 39f 34f
9:04pm 6ft 11s 20 22 mph 1033.9mb 39f 35f
8:04pm 6ft 11s 18 22 mph 1031.8mb 39f 36f
7:04pm 6.5ft 11s 18 20 mph 1031.1mb 40f 37f
6:04pm 6ft 11s 20 22 mph 1030.1mb 40f 37f
5:04pm 8ft 11s 20 25 mph 1028.7mb 40f 37f
4:04pm 6ft 11s 18 22 mph 1027.5mb 40f 37f
3:04pm  -   -  20 25 mph 1026.3mb 40f 36f
2:04pm  -   -  22 27 mph 1025.1mb 39f 35f
1:04pm  -   -  20 27 mph 1024mb 39f 34f
12:04pm 6.5ft 11s 22 29 mph 1022.8mb 39f 33f
11:04am 8ft 11s 25 29 mph 1021.5mb 39f 33f
10:04am 6.5ft 11s 27 31 mph 1020.6mb 39f 31f
9:04am 6.5ft 11s 27 34 mph 1018.7mb 39f 31f
8:04am 7ft 11s 22 27 mph 1016.6mb 39f 31f
7:04am 7ft 8s 16 31 mph 1013.9mb 39f 31f
6:04am 8ft 11s 31 36 mph 1010.3mb 40f 31f
5:04am 7ft 8s 27 31 mph 1009.1mb 40f 33f